Time;durP1;ratioP1;P1;durP2;ratioP2;P2;SDS_P1;SDS_P2;PMS_P1;PMS_P2;Temp;Humidity;BMP_temperature;BMP_pressure;BME280_temperature;BME280_humidity;BME280_pressure;Samples;Min_cycle;Max_cycle;Signal;HPM_P1;HPM_P2
2022/08/08 00:00:10;;;;;;;0.82;0.40;;;17.90;90.00;;;;;;6166097;23;20166;-86
2022/08/08 00:03:00;;;;;;;0.65;0.45;;;17.90;90.20;;;;;;6197586;23;20035;-87
2022/08/08 00:05:58;;;;;;;0.50;0.40;;;17.80;90.30;;;;;;6216829;23;20020;-85
2022/08/08 00:08:48;;;;;;;0.30;0.30;;;17.80;90.60;;;;;;6217445;23;20039;-86
2022/08/08 00:11:32;;;;;;;0.70;0.50;;;17.60;90.80;;;;;;6169198;23;20040;-88
2022/08/08 00:14:38;;;;;;;0.35;0.35;;;17.60;91.10;;;;;;6179732;23;20059;-86
2022/08/08 00:17:39;;;;;;;0.52;0.43;;;17.60;91.10;;;;;;6181824;23;20131;-85
2022/08/08 00:21:00;;;;;;;0.50;0.40;;;17.60;91.20;;;;;;6199231;23;20060;-87
2022/08/08 00:23:41;;;;;;;0.95;0.50;;;17.60;91.40;;;;;;6194062;23;20051;-87
2022/08/08 00:26:32;;;;;;;0.40;0.40;;;17.50;91.60;;;;;;6214632;23;20070;-86
2022/08/08 00:29:13;;;;;;;0.60;0.55;;;17.50;91.80;;;;;;6189036;23;20086;-86
2022/08/08 00:32:04;;;;;;;0.95;0.43;;;17.40;91.90;;;;;;6181621;23;20070;-89
2022/08/08 00:35:19;;;;;;;1.08;0.57;;;17.30;92.20;;;;;;6181069;23;20024;-87
2022/08/08 00:38:06;;;;;;;0.45;0.40;;;17.30;92.40;;;;;;6196191;23;20108;-88
2022/08/08 00:41:05;;;;;;;0.60;0.50;;;17.20;92.50;;;;;;6199777;23;20020;-86
2022/08/08 00:43:46;;;;;;;0.70;0.55;;;17.20;92.90;;;;;;6218291;23;20040;-86
2022/08/08 00:46:40;;;;;;;0.40;0.40;;;17.20;93.00;;;;;;6195549;23;20024;-86
2022/08/08 00:49:36;;;;;;;0.40;0.40;;;17.20;93.10;;;;;;6219481;23;20092;-93
2022/08/08 00:52:22;;;;;;;0.30;0.30;;;17.10;93.30;;;;;;6219309;23;20443;-89
2022/08/08 00:55:18;;;;;;;0.40;0.30;;;17.10;93.80;;;;;;6185711;23;20084;-86
2022/08/08 00:58:23;;;;;;;0.50;0.50;;;17.10;94.00;;;;;;6201392;23;20034;-87
2022/08/08 01:01:21;;;;;;;0.93;0.52;;;17.10;94.30;;;;;;6242181;23;20393;-91
2022/08/08 01:04:19;;;;;;;0.50;0.47;;;17.00;94.50;;;;;;6192904;23;20117;-92
2022/08/08 01:07:07;;;;;;;0.73;0.40;;;17.00;94.70;;;;;;6214817;23;20058;-91
2022/08/08 01:09:42;;;;;;;1.00;0.50;;;17.00;94.70;;;;;;6212668;23;20020;-88
2022/08/08 01:12:35;;;;;;;0.85;0.50;;;16.90;95.10;;;;;;6212916;23;20079;-90
2022/08/08 01:15:43;;;;;;;0.63;0.45;;;16.90;95.00;;;;;;6212010;23;20024;-89
2022/08/08 01:18:31;;;;;;;0.50;0.50;;;16.90;95.10;;;;;;6215886;23;20031;-92
2022/08/08 01:21:47;;;;;;;0.57;0.40;;;16.90;95.50;;;;;;6200231;23;20063;-89
2022/08/08 01:24:56;;;;;;;0.43;0.40;;;16.90;95.40;;;;;;6238217;23;20032;-88
2022/08/08 01:27:44;;;;;;;0.40;0.40;;;16.80;95.60;;;;;;6187307;23;20039;-88
2022/08/08 02:33:29;;;;;;;0.90;0.60;;;15.90;99.40;;;;;;6217678;23;20272;-90
2022/08/08 02:36:38;;;;;;;0.68;0.40;;;15.80;99.90;;;;;;6222750;23;20265;-86
2022/08/08 02:39:42;;;;;;;1.10;0.50;;;15.70;99.90;;;;;;6245485;23;20024;-93
2022/08/08 02:42:45;;;;;;;0.70;0.52;;;15.70;99.90;;;;;;6204653;23;20078;-92
2022/08/08 02:45:39;;;;;;;0.50;0.40;;;15.70;99.90;;;;;;6206832;23;20020;-90
2022/08/08 02:48:47;;;;;;;0.52;0.50;;;15.70;99.90;;;;;;6200503;23;20020;-87
2022/08/08 02:51:45;;;;;;;0.40;0.40;;;15.60;99.90;;;;;;6194303;23;20438;-91
2022/08/08 02:54:48;;;;;;;0.68;0.50;;;15.50;99.90;;;;;;6245753;23;20050;-86
2022/08/08 02:57:20;;;;;;;0.40;0.40;;;15.50;99.90;;;;;;6218049;23;20363;-86
2022/08/08 03:00:14;;;;;;;0.63;0.50;;;15.50;99.90;;;;;;6217128;23;20019;-86
2022/08/08 03:03:32;;;;;;;0.43;0.43;;;15.50;99.90;;;;;;6218126;23;20066;-86
2022/08/08 03:06:36;;;;;;;0.98;0.88;;;15.50;99.90;;;;;;6161133;23;20020;-88
2022/08/08 03:09:32;;;;;;;0.80;0.70;;;15.50;99.90;;;;;;6215383;23;20450;-84
2022/08/08 03:12:20;;;;;;;0.65;0.60;;;15.50;99.90;;;;;;6215749;23;20024;-87
2022/08/08 03:15:43;;;;;;;0.88;0.43;;;15.40;99.90;;;;;;6218381;23;20059;-86
2022/08/08 03:18:33;;;;;;;1.88;0.60;;;15.40;99.90;;;;;;6200540;23;20016;-88
2022/08/08 03:21:00;;;;;;;0.77;0.55;;;15.40;99.90;;;;;;6213575;23;20028;-87
2022/08/08 03:23:40;;;;;;;0.68;0.55;;;15.40;99.90;;;;;;6218098;23;20068;-86
2022/08/08 03:26:29;;;;;;;0.47;0.40;;;15.40;99.90;;;;;;6176518;23;20111;-88
2022/08/08 03:29:01;;;;;;;0.55;0.50;;;15.40;99.90;;;;;;6167258;23;20442;-88
2022/08/08 03:34:33;;;;;;;0.50;0.50;;;15.40;99.90;;;;;;6205407;23;20016;-89
2022/08/08 03:37:00;;;;;;;0.65;0.50;;;15.30;99.90;;;;;;6166300;23;20020;-87
2022/08/08 03:39:45;;;;;;;0.35;0.35;;;15.30;99.90;;;;;;6177251;23;20115;-88
2022/08/08 03:42:26;;;;;;;0.52;0.45;;;15.20;99.90;;;;;;6174776;23;20102;-89
2022/08/08 03:45:24;;;;;;;0.45;0.32;;;15.20;99.90;;;;;;6172749;23;20016;-88
2022/08/08 03:48:11;;;;;;;0.60;0.50;;;15.20;99.90;;;;;;6181773;23;20115;-88
2022/08/08 03:50:58;;;;;;;0.52;0.50;;;15.10;99.90;;;;;;6178498;23;20024;-86
2022/08/08 03:53:25;;;;;;;0.55;0.50;;;15.10;99.90;;;;;;6166112;23;20113;-87
2022/08/08 03:56:14;;;;;;;0.82;0.55;;;15.10;99.90;;;;;;6177681;23;20023;-88
2022/08/08 03:58:58;;;;;;;1.08;0.70;;;15.10;99.90;;;;;;6177236;23;20102;-89
2022/08/08 04:01:38;;;;;;;0.68;0.60;;;15.00;99.90;;;;;;6164937;23;20042;-87
2022/08/08 04:04:25;;;;;;;0.82;0.60;;;15.10;99.90;;;;;;6177894;23;20104;-88
2022/08/08 04:06:57;;;;;;;0.70;0.70;;;15.00;99.90;;;;;;6191630;23;20039;-88
2022/08/08 04:09:27;;;;;;;1.00;0.77;;;15.00;99.90;;;;;;6167330;23;20470;-89
2022/08/08 04:12:14;;;;;;;0.73;0.60;;;14.90;99.90;;;;;;6200033;23;20019;-88
2022/08/08 04:14:41;;;;;;;0.50;0.50;;;14.80;99.90;;;;;;6166922;23;20521;-89
2022/08/08 04:17:11;;;;;;;0.90;0.68;;;14.80;99.90;;;;;;6168669;23;20059;-89
2022/08/08 04:19:48;;;;;;;0.43;0.43;;;14.70;99.90;;;;;;6174174;23;20081;-90
2022/08/08 04:22:17;;;;;;;0.73;0.50;;;14.70;99.90;;;;;;6170007;23;20016;-90
2022/08/08 04:24:49;;;;;;;0.73;0.50;;;14.70;99.90;;;;;;6171974;23;20040;-91
2022/08/08 04:27:17;;;;;;;0.57;0.50;;;14.70;99.90;;;;;;6169472;23;20019;-90
2022/08/08 04:30:06;;;;;;;0.73;0.60;;;14.70;99.90;;;;;;6180950;23;20027;-89
2022/08/08 04:32:44;;;;;;;0.70;0.60;;;14.70;99.90;;;;;;6171250;23;20096;-88
2022/08/08 04:35:16;;;;;;;1.10;0.73;;;14.80;99.90;;;;;;6166875;23;20024;-88
2022/08/08 04:37:43;;;;;;;0.80;0.60;;;14.80;99.90;;;;;;6162902;23;20465;-85
2022/08/08 04:40:10;;;;;;;0.45;0.40;;;14.80;99.90;;;;;;6187443;23;20114;-88
2022/08/08 04:42:38;;;;;;;0.93;0.60;;;14.80;99.90;;;;;;6161533;23;20124;-90
2022/08/08 04:45:26;;;;;;;0.63;0.60;;;14.80;99.90;;;;;;6175643;23;20024;-89
2022/08/08 04:47:55;;;;;;;0.60;0.40;;;14.80;99.90;;;;;;6165424;23;20131;-90
2022/08/08 04:50:23;;;;;;;0.80;0.60;;;14.70;99.90;;;;;;6167562;23;20023;-90
2022/08/08 04:53:00;;;;;;;0.52;0.40;;;14.70;99.90;;;;;;6173636;23;20023;-91
2022/08/08 04:55:39;;;;;;;0.80;0.45;;;14.70;99.90;;;;;;6176093;23;20031;-90
2022/08/08 04:58:22;;;;;;;0.57;0.52;;;14.70;99.90;;;;;;6179156;23;20036;-90
2022/08/08 05:00:49;;;;;;;0.45;0.40;;;14.80;99.90;;;;;;6168902;23;20052;-91
2022/08/08 05:03:17;;;;;;;1.02;0.40;;;14.80;99.90;;;;;;6193117;23;20016;-89
2022/08/08 05:06:04;;;;;;;0.63;0.50;;;14.90;99.90;;;;;;6181235;23;20066;-90
2022/08/08 05:08:40;;;;;;;0.90;0.65;;;14.90;99.90;;;;;;6173563;23;20016;-89
2022/08/08 05:11:12;;;;;;;0.90;0.60;;;14.90;99.90;;;;;;6165938;23;20035;-91
2022/08/08 05:13:48;;;;;;;1.05;0.77;;;14.90;99.90;;;;;;6175227;23;20012;-93
2022/08/08 05:16:29;;;;;;;0.77;0.68;;;14.90;99.90;;;;;;6176046;23;20020;-90
2022/08/08 05:19:16;;;;;;;1.48;0.90;;;14.90;99.90;;;;;;6181867;23;20414;-93
2022/08/08 05:22:07;;;;;;;0.55;0.47;;;14.90;99.90;;;;;;6182164;23;20081;-93
2022/08/08 05:24:35;;;;;;;0.88;0.68;;;15.00;99.90;;;;;;6169715;23;20293;-91
2022/08/08 05:27:04;;;;;;;0.93;0.50;;;15.00;99.90;;;;;;6171058;23;20024;-91
2022/08/08 05:29:31;;;;;;;0.70;0.50;;;15.10;99.90;;;;;;6172206;23;20027;-92
2022/08/08 05:32:04;;;;;;;0.57;0.47;;;15.10;99.90;;;;;;6173668;23;20016;-90
2022/08/08 05:34:34;;;;;;;0.80;0.52;;;15.10;99.90;;;;;;6176323;23;20084;-92
2022/08/08 05:37:03;;;;;;;0.50;0.40;;;15.20;99.90;;;;;;6204361;23;20031;-89
2022/08/08 05:39:48;;;;;;;0.38;0.38;;;15.20;99.90;;;;;;6192596;23;20023;-91
2022/08/08 05:42:16;;;;;;;0.40;0.38;;;15.20;99.90;;;;;;6182068;23;20063;-92
2022/08/08 05:44:55;;;;;;;0.55;0.50;;;15.30;99.90;;;;;;6187652;23;20047;-88
2022/08/08 05:47:26;;;;;;;0.47;0.40;;;15.40;99.90;;;;;;6205610;23;20076;-89
2022/08/08 05:50:13;;;;;;;0.63;0.50;;;15.40;99.90;;;;;;6190315;23;20031;-91
2022/08/08 05:52:42;;;;;;;0.47;0.47;;;15.50;99.90;;;;;;6179083;23;20036;-91
2022/08/08 05:55:09;;;;;;;1.17;0.57;;;15.60;99.90;;;;;;6176381;23;20435;-89
2022/08/08 05:57:41;;;;;;;0.70;0.50;;;15.60;99.90;;;;;;6179235;23;20070;-93
2022/08/08 06:00:31;;;;;;;0.47;0.45;;;15.70;99.90;;;;;;6191490;23;20028;-89
2022/08/08 06:03:09;;;;;;;0.80;0.57;;;15.70;99.90;;;;;;6173105;23;20027;-88
2022/08/08 06:05:58;;;;;;;0.43;0.40;;;15.80;99.90;;;;;;6175744;23;20419;-90
2022/08/08 06:08:42;;;;;;;0.82;0.50;;;15.80;99.90;;;;;;6168545;23;20012;-89
2022/08/08 06:11:25;;;;;;;0.65;0.57;;;15.90;99.90;;;;;;6172880;23;20031;-90
2022/08/08 06:13:54;;;;;;;0.50;0.40;;;15.90;99.90;;;;;;6167230;23;20023;-89
2022/08/08 06:16:21;;;;;;;0.35;0.32;;;16.00;99.90;;;;;;6162895;23;20035;-89
2022/08/08 06:18:55;;;;;;;0.60;0.30;;;16.10;99.90;;;;;;6166390;23;20016;-87
2022/08/08 06:21:23;;;;;;;1.08;0.50;;;16.10;99.90;;;;;;6187732;23;20016;-88
2022/08/08 06:24:10;;;;;;;0.40;0.30;;;16.20;99.90;;;;;;6174162;23;20116;-89
2022/08/08 06:26:56;;;;;;;0.50;0.40;;;16.30;99.90;;;;;;6168718;23;20016;-90
2022/08/08 06:29:54;;;;;;;0.57;0.40;;;16.40;99.90;;;;;;6160716;23;20024;-89
2022/08/08 06:32:30;;;;;;;0.40;0.40;;;16.50;99.90;;;;;;6170867;23;20033;-88
2022/08/08 06:35:02;;;;;;;0.22;0.22;;;16.60;99.90;;;;;;6164700;23;20731;-88
2022/08/08 06:38:01;;;;;;;0.45;0.45;;;16.70;99.90;;;;;;6176789;23;20032;-88
2022/08/08 06:40:30;;;;;;;0.52;0.40;;;16.80;99.90;;;;;;6164159;23;20329;-89
2022/08/08 06:43:08;;;;;;;0.70;0.50;;;16.90;99.90;;;;;;6164764;23;20024;-89
2022/08/08 06:45:37;;;;;;;0.55;0.47;;;16.90;99.90;;;;;;6165142;23;20097;-89
2022/08/08 06:48:05;;;;;;;0.52;0.50;;;17.00;99.90;;;;;;6164643;23;20031;-89
2022/08/08 06:50:32;;;;;;;0.55;0.55;;;17.10;99.90;;;;;;6165936;23;20341;-87
2022/08/08 06:53:06;;;;;;;0.80;0.63;;;17.20;99.90;;;;;;6169595;23;20024;-88
2022/08/08 06:55:43;;;;;;;0.52;0.40;;;17.20;99.90;;;;;;6171718;23;20016;-87
2022/08/08 06:58:19;;;;;;;0.40;0.40;;;17.30;99.90;;;;;;6170656;23;20016;-86
2022/08/08 07:00:48;;;;;;;0.60;0.47;;;17.40;99.90;;;;;;6174462;23;20023;-89
2022/08/08 07:03:33;;;;;;;0.65;0.50;;;17.50;99.90;;;;;;6182716;23;20027;-89
2022/08/08 07:06:22;;;;;;;0.63;0.60;;;17.60;99.90;;;;;;6194073;23;20419;-87
2022/08/08 07:09:13;;;;;;;0.68;0.65;;;17.70;99.90;;;;;;6173271;23;20403;-87
2022/08/08 07:11:49;;;;;;;0.80;0.60;;;17.80;99.90;;;;;;6221925;23;20042;-89
2022/08/08 07:14:21;;;;;;;0.82;0.63;;;17.90;99.90;;;;;;6167516;23;20110;-89
2022/08/08 07:17:03;;;;;;;;;;;18.00;99.90;;;;;;6169486;23;20040;-89
2022/08/08 07:19:43;;;;;;;0.60;0.40;;;18.10;99.90;;;;;;6193308;23;19919;-89
2022/08/08 07:22:12;;;;;;;0.50;0.40;;;18.20;99.90;;;;;;6167852;23;20016;-88
2022/08/08 07:24:51;;;;;;;0.50;0.40;;;18.20;99.90;;;;;;6197633;23;20043;-89
2022/08/08 07:27:22;;;;;;;1.23;0.77;;;18.30;99.90;;;;;;6216547;23;20023;-87
2022/08/08 07:30:09;;;;;;;1.58;1.10;;;18.40;99.90;;;;;;6199061;23;20277;-87
2022/08/08 07:32:44;;;;;;;1.08;0.70;;;18.40;99.90;;;;;;6193006;23;20097;-87
2022/08/08 07:35:14;;;;;;;1.42;0.80;;;18.50;99.90;;;;;;6167198;23;20020;-91
2022/08/08 07:37:43;;;;;;;0.90;0.63;;;18.50;99.90;;;;;;6169790;23;20055;-90
2022/08/08 07:40:31;;;;;;;1.02;0.80;;;18.60;99.90;;;;;;6180631;23;20067;-89
2022/08/08 07:43:01;;;;;;;0.50;0.50;;;18.70;99.90;;;;;;6168577;23;20094;-91
2022/08/08 07:45:35;;;;;;;1.10;0.45;;;18.80;99.90;;;;;;6171064;23;20039;-92
2022/08/08 07:48:22;;;;;;;0.60;0.50;;;18.80;99.90;;;;;;6200402;23;20028;-91
2022/08/08 07:50:50;;;;;;;0.40;0.40;;;19.00;99.90;;;;;;6167610;23;20208;-88
2022/08/08 07:53:36;;;;;;;1.38;0.80;;;19.00;99.90;;;;;;6193380;23;20430;-87
2022/08/08 07:56:24;;;;;;;0.52;0.52;;;19.10;99.90;;;;;;6180571;23;20024;-89
2022/08/08 07:59:04;;;;;;;1.00;0.50;;;19.20;99.90;;;;;;6197796;23;20020;-90
2022/08/08 08:01:34;;;;;;;0.70;0.55;;;19.30;99.90;;;;;;6170058;23;20340;-90
2022/08/08 08:04:24;;;;;;;0.43;0.43;;;19.40;99.90;;;;;;6180254;23;20024;-91
2022/08/08 08:06:52;;;;;;;0.40;0.40;;;19.40;99.90;;;;;;6193651;23;20066;-91
2022/08/08 08:09:24;;;;;;;0.47;0.40;;;19.60;99.90;;;;;;6168082;23;20062;-90
2022/08/08 08:11:52;;;;;;;1.00;0.50;;;19.60;99.90;;;;;;6168971;23;20092;-89
2022/08/08 08:14:29;;;;;;;0.43;0.43;;;19.70;99.90;;;;;;6168998;23;20115;-92
2022/08/08 08:16:58;;;;;;;1.10;0.57;;;19.80;99.90;;;;;;6169193;23;20213;-93
2022/08/08 08:19:31;;;;;;;1.02;0.63;;;20.00;99.90;;;;;;6170385;23;20047;-90
2022/08/08 08:22:11;;;;;;;0.75;0.47;;;20.00;99.90;;;;;;6179349;23;20036;-93
2022/08/08 08:24:41;;;;;;;0.60;0.47;;;20.20;99.90;;;;;;6184131;23;20283;-89
2022/08/08 08:27:12;;;;;;;0.63;0.40;;;20.30;99.90;;;;;;6178861;23;20020;-88
2022/08/08 08:29:39;;;;;;;0.30;0.30;;;20.40;99.90;;;;;;6171184;23;20020;-89
2022/08/08 08:32:08;;;;;;;0.47;0.43;;;20.50;99.90;;;;;;6167994;23;20111;-89
2022/08/08 08:34:37;;;;;;;0.28;0.28;;;20.60;99.90;;;;;;6171042;23;20039;-89
2022/08/08 08:37:09;;;;;;;0.35;0.32;;;20.70;99.90;;;;;;6172522;23;20020;-89
2022/08/08 08:39:36;;;;;;;1.08;0.75;;;20.70;99.90;;;;;;6191782;23;20363;-88
2022/08/08 08:42:24;;;;;;;0.85;0.63;;;20.80;99.90;;;;;;6178591;23;20062;-91
2022/08/08 08:45:05;;;;;;;0.82;0.50;;;20.90;99.80;;;;;;6170845;23;20012;-88
2022/08/08 08:47:52;;;;;;;0.30;0.30;;;21.00;99.30;;;;;;6173583;23;20035;-88
2022/08/08 08:50:25;;;;;;;0.43;0.30;;;21.10;99.40;;;;;;6166030;23;20031;-89
2022/08/08 08:53:02;;;;;;;0.30;0.20;;;21.20;98.80;;;;;;6171083;23;20102;-89
2022/08/08 08:55:43;;;;;;;0.25;0.25;;;21.30;98.50;;;;;;6197256;23;20034;-88
2022/08/08 08:58:40;;;;;;;0.77;0.47;;;21.40;98.70;;;;;;6165608;23;20016;-89
2022/08/08 09:01:10;;;;;;;0.20;0.20;;;21.50;97.90;;;;;;6188094;23;20138;-88
2022/08/08 09:03:43;;;;;;;0.57;0.30;;;21.50;98.00;;;;;;6166093;23;20020;-89
2022/08/08 09:06:27;;;;;;;1.60;0.50;;;21.70;97.80;;;;;;6168715;23;20089;-88
2022/08/08 09:09:03;;;;;;;0.52;0.45;;;21.80;97.30;;;;;;6170227;23;20016;-87
2022/08/08 09:11:34;;;;;;;0.30;0.30;;;21.90;96.90;;;;;;6189748;23;20101;-88
2022/08/08 09:14:22;;;;;;;0.55;0.40;;;22.00;96.20;;;;;;6175332;23;20067;-89
2022/08/08 09:16:52;;;;;;;2.78;0.60;;;22.10;95.90;;;;;;6165625;23;20020;-90
2022/08/08 09:19:19;;;;;;;0.57;0.40;;;22.10;94.90;;;;;;6164965;23;20406;-91
2022/08/08 09:22:06;;;;;;;0.93;0.50;;;22.20;95.50;;;;;;6179523;23;20074;-89
2022/08/08 09:24:34;;;;;;;0.52;0.40;;;22.20;94.70;;;;;;6163791;23;20027;-89
2022/08/08 09:27:05;;;;;;;0.82;0.45;;;22.30;94.10;;;;;;6163965;23;20020;-88
2022/08/08 09:29:52;;;;;;;0.30;0.30;;;22.40;94.20;;;;;;6167176;23;20104;-88
2022/08/08 09:32:31;;;;;;;0.57;0.55;;;22.50;93.60;;;;;;6191623;23;20024;-88
2022/08/08 09:34:58;;;;;;;0.60;0.57;;;22.60;92.50;;;;;;6213422;23;20020;-89
2022/08/08 09:37:29;;;;;;;1.40;0.70;;;22.70;91.60;;;;;;6166654;23;20016;-92
2022/08/08 09:40:20;;;;;;;0.50;0.50;;;22.80;91.80;;;;;;6177106;23;20028;-90
2022/08/08 09:42:49;;;;;;;1.52;0.70;;;23.00;92.20;;;;;;6166924;23;20020;-89
2022/08/08 09:45:22;;;;;;;0.93;0.70;;;23.10;91.70;;;;;;6196680;23;20070;-88
2022/08/08 09:48:09;;;;;;;0.63;0.60;;;23.00;90.90;;;;;;6170396;23;20044;-89
2022/08/08 09:50:52;;;;;;;1.05;0.60;;;23.00;90.50;;;;;;6167749;23;20027;-90
2022/08/08 09:53:22;;;;;;;0.20;0.20;;;23.10;90.40;;;;;;6162511;23;20091;-89
2022/08/08 09:56:09;;;;;;;0.65;0.50;;;23.10;90.30;;;;;;6173026;23;20123;-89
2022/08/08 09:58:40;;;;;;;0.63;0.50;;;23.20;90.90;;;;;;6160963;23;20066;-89
2022/08/08 10:01:10;;;;;;;0.95;0.80;;;23.30;90.50;;;;;;6184991;23;20034;-89
2022/08/08 10:03:59;;;;;;;1.55;0.65;;;23.40;89.30;;;;;;6177256;23;20020;-90
2022/08/08 10:06:30;;;;;;;1.35;0.60;;;23.50;87.80;;;;;;6171071;23;20024;-92
2022/08/08 10:09:01;;;;;;;0.80;0.50;;;23.60;87.30;;;;;;6170333;23;20027;-90
2022/08/08 10:11:28;;;;;;;0.60;0.47;;;23.80;86.60;;;;;;6191535;23;20027;-90
2022/08/08 10:14:15;;;;;;;0.70;0.60;;;23.90;83.50;;;;;;6178066;23;20240;-90
2022/08/08 10:17:05;;;;;;;1.08;0.50;;;23.90;83.20;;;;;;6177871;23;20020;-88
2022/08/08 10:19:56;;;;;;;1.70;0.40;;;23.90;82.50;;;;;;6178096;23;20112;-90
2022/08/08 10:22:27;;;;;;;1.48;0.50;;;24.00;84.90;;;;;;6177335;23;20039;-90
2022/08/08 10:25:02;;;;;;;1.05;0.52;;;24.00;83.10;;;;;;6179038;23;20083;-89
2022/08/08 10:27:39;;;;;;;0.47;0.47;;;24.20;82.70;;;;;;6179251;23;20028;-89
2022/08/08 10:30:07;;;;;;;1.00;0.70;;;24.30;82.00;;;;;;6179324;23;20046;-88
2022/08/08 10:32:57;;;;;;;0.50;0.40;;;24.40;82.50;;;;;;6211153;23;20032;-90
2022/08/08 10:35:29;;;;;;;0.50;0.50;;;24.40;81.90;;;;;;6177408;23;20074;-90
2022/08/08 10:38:16;;;;;;;0.88;0.70;;;24.50;81.50;;;;;;6183798;23;20096;-90
2022/08/08 10:40:45;;;;;;;0.80;0.50;;;24.50;81.40;;;;;;6163698;23;20066;-89
2022/08/08 10:43:12;;;;;;;1.23;0.70;;;24.60;81.50;;;;;;6164939;23;20412;-91
2022/08/08 10:45:44;;;;;;;1.00;0.50;;;24.60;81.70;;;;;;6163393;23;20016;-89
2022/08/08 10:48:31;;;;;;;1.55;0.85;;;24.70;82.10;;;;;;6172427;23;20157;-89
2022/08/08 10:51:14;;;;;;;1.38;0.70;;;24.80;81.10;;;;;;6169696;23;20020;-89
2022/08/08 10:53:41;;;;;;;0.80;0.40;;;24.70;81.00;;;;;;6165719;23;20028;-90
2022/08/08 10:56:23;;;;;;;0.40;0.40;;;24.70;81.00;;;;;;6177356;23;20016;-90
2022/08/08 10:58:59;;;;;;;0.85;0.40;;;24.70;81.60;;;;;;6170707;23;20082;-88
2022/08/08 11:01:30;;;;;;;1.63;0.63;;;24.80;82.60;;;;;;6168131;23;20035;-90
2022/08/08 11:04:00;;;;;;;1.40;0.60;;;24.90;83.40;;;;;;6168921;23;20042;-89
2022/08/08 11:06:31;;;;;;;0.63;0.43;;;25.00;82.90;;;;;;6169237;23;20201;-88
2022/08/08 11:09:06;;;;;;;0.47;0.45;;;25.20;83.50;;;;;;6167603;23;20028;-90
2022/08/08 11:11:46;;;;;;;0.40;0.40;;;25.30;82.20;;;;;;6177547;23;20035;-92
2022/08/08 11:14:33;;;;;;;0.70;0.40;;;25.60;81.40;;;;;;6203583;23;20455;-91
2022/08/08 11:17:00;;;;;;;0.47;0.30;;;25.80;81.80;;;;;;6168153;23;20076;-90
2022/08/08 11:19:28;;;;;;;0.65;0.55;;;25.90;80.90;;;;;;6172765;23;20453;-89
2022/08/08 11:21:57;;;;;;;1.35;0.85;;;25.90;80.40;;;;;;6180487;23;20040;-90
2022/08/08 11:24:26;;;;;;;1.02;0.55;;;25.90;80.60;;;;;;6164788;23;20107;-90
2022/08/08 11:26:55;;;;;;;0.57;0.47;;;25.80;80.30;;;;;;6165977;23;20020;-89
2022/08/08 11:29:25;;;;;;;1.08;0.65;;;25.80;80.40;;;;;;6191821;23;20088;-90
2022/08/08 11:32:13;;;;;;;0.75;0.60;;;25.60;80.40;;;;;;6176801;23;20027;-90
2022/08/08 11:34:42;;;;;;;0.60;0.32;;;25.70;80.60;;;;;;6163016;23;20099;-90
2022/08/08 11:37:30;;;;;;;0.52;0.40;;;25.80;80.80;;;;;;6178386;23;20058;-88
2022/08/08 11:40:18;;;;;;;0.40;0.40;;;25.90;80.60;;;;;;6178065;23;20411;-89
2022/08/08 11:42:52;;;;;;;0.43;0.40;;;26.00;80.30;;;;;;6171638;23;20020;-90
2022/08/08 11:45:20;;;;;;;0.85;0.55;;;26.00;80.10;;;;;;6169224;23;20098;-90
2022/08/08 11:47:48;;;;;;;2.47;0.98;;;25.90;80.10;;;;;;6170727;23;20539;-89
2022/08/08 11:50:31;;;;;;;;;;;25.70;80.00;;;;;;6179685;23;20024;-90
2022/08/08 11:53:01;;;;;;;0.60;0.60;;;25.70;80.60;;;;;;6194431;23;20120;-92
2022/08/08 11:55:34;;;;;;;0.50;0.50;;;25.80;80.60;;;;;;6195930;23;20035;-90
2022/08/08 11:58:05;;;;;;;0.60;0.60;;;26.30;80.70;;;;;;6194516;23;20035;-90
2022/08/08 12:00:55;;;;;;;0.30;0.30;;;26.90;78.80;;;;;;6221941;23;20027;-89
2022/08/08 12:03:23;;;;;;;0.30;0.30;;;27.70;77.50;;;;;;6172214;23;20024;-91
2022/08/08 12:05:56;;;;;;;0.40;0.30;;;27.70;76.50;;;;;;6175673;23;20035;-88
2022/08/08 12:08:32;;;;;;;0.50;0.30;;;27.80;76.60;;;;;;6179100;23;20349;-89
2022/08/08 12:11:09;;;;;;;0.38;0.30;;;27.60;76.60;;;;;;6170743;23;20024;-90
2022/08/08 12:13:36;;;;;;;0.35;0.35;;;27.40;76.40;;;;;;6167436;23;20024;-90
2022/08/08 12:16:24;;;;;;;0.45;0.45;;;27.20;76.60;;;;;;6199535;23;20043;-89
2022/08/08 12:19:02;;;;;;;0.40;0.30;;;27.60;76.40;;;;;;6172087;23;20020;-89
2022/08/08 12:21:33;;;;;;;0.52;0.50;;;27.80;75.50;;;;;;6167275;23;20035;-89
2022/08/08 12:24:20;;;;;;;0.60;0.40;;;27.70;74.80;;;;;;6177454;23;20096;-90
2022/08/08 12:26:54;;;;;;;0.40;0.40;;;28.00;75.10;;;;;;6170627;23;20307;-91
2022/08/08 12:29:33;;;;;;;0.43;0.40;;;28.60;73.50;;;;;;6166686;23;20020;-89
2022/08/08 12:32:12;;;;;;;0.20;0.20;;;29.30;71.20;;;;;;6216006;23;20030;-89
2022/08/08 12:35:00;;;;;;;0.43;0.28;;;30.10;70.20;;;;;;6170306;23;20118;-90
2022/08/08 12:37:44;;;;;;;0.32;0.30;;;30.80;68.80;;;;;;6175448;23;20104;-90
2022/08/08 12:40:53;;;;;;;0.40;0.40;;;30.70;68.60;;;;;;6174638;23;20099;-90
2022/08/08 12:43:32;;;;;;;0.38;0.38;;;30.80;68.70;;;;;;6191790;23;20050;-91
2022/08/08 12:46:25;;;;;;;0.30;0.30;;;31.10;67.50;;;;;;6179095;23;20024;-90
2022/08/08 12:48:56;;;;;;;0.47;0.40;;;31.60;67.30;;;;;;6168342;23;20020;-92
2022/08/08 12:51:44;;;;;;;0.40;0.40;;;31.70;66.50;;;;;;6177750;23;20093;-90
2022/08/08 12:54:31;;;;;;;0.40;0.40;;;32.10;65.30;;;;;;6167113;23;20099;-90
2022/08/08 12:57:21;;;;;;;0.20;0.20;;;33.00;64.20;;;;;;6190109;23;20023;-91
2022/08/08 12:59:50;;;;;;;0.20;0.20;;;33.60;63.30;;;;;;6163657;23;20565;-91
2022/08/08 13:02:41;;;;;;;0.30;0.30;;;33.80;62.50;;;;;;6175601;23;20064;-92
2022/08/08 13:05:19;;;;;;;;;;;33.70;62.30;;;;;;6170724;23;20103;-88
2022/08/08 13:08:16;;;;;;;0.30;0.30;;;33.80;61.80;;;;;;6194846;23;19919;-90
2022/08/08 13:10:55;;;;;;;0.28;0.28;;;33.80;61.40;;;;;;6186861;23;20055;-88
2022/08/08 13:13:31;;;;;;;0.47;0.35;;;34.40;60.10;;;;;;6167930;23;20107;-89
2022/08/08 13:16:20;;;;;;;0.30;0.30;;;35.10;60.20;;;;;;6181780;23;20408;-89
2022/08/08 13:18:47;;;;;;;0.63;0.60;;;35.00;58.80;;;;;;6175979;23;20051;-92
2022/08/08 13:21:26;;;;;;;0.70;0.40;;;34.70;59.10;;;;;;6171182;23;20106;-90
2022/08/08 13:24:13;;;;;;;0.28;0.22;;;34.40;58.60;;;;;;6176058;23;20066;-90
2022/08/08 13:27:04;;;;;;;0.22;0.22;;;34.30;59.00;;;;;;6176197;23;20455;-90
2022/08/08 13:29:50;;;;;;;0.45;0.45;;;34.70;58.60;;;;;;6163978;23;20367;-89
2022/08/08 13:32:18;;;;;;;0.45;0.35;;;35.30;56.80;;;;;;6163423;23;20027;-92
2022/08/08 13:34:52;;;;;;;0.30;0.30;;;35.80;57.60;;;;;;6165164;23;20020;-91
2022/08/08 13:37:21;;;;;;;0.38;0.38;;;36.40;56.80;;;;;;6159678;23;20523;-90
2022/08/08 13:40:09;;;;;;;0.50;0.43;;;36.80;56.40;;;;;;6175873;23;20080;-92
2022/08/08 13:42:39;;;;;;;0.65;0.38;;;36.40;55.90;;;;;;6163367;23;20066;-92
2022/08/08 13:45:06;;;;;;;0.70;0.20;;;36.50;55.70;;;;;;6166617;23;20420;-92
2022/08/08 13:47:36;;;;;;;0.50;0.30;;;35.70;56.40;;;;;;6170180;23;20109;-90
2022/08/08 13:50:07;;;;;;;0.40;0.30;;;35.10;56.20;;;;;;6165885;23;20027;-95
2022/08/08 13:52:54;;;;;;;0.40;0.40;;;35.00;56.40;;;;;;6178286;23;20274;-96
2022/08/08 13:55:25;;;;;;;0.50;0.30;;;34.70;56.50;;;;;;6168078;23;20253;-91
2022/08/08 13:58:02;;;;;;;0.20;0.20;;;35.30;56.50;;;;;;6172004;23;20020;-89
2022/08/08 14:00:39;;;;;;;0.77;0.57;;;35.90;55.70;;;;;;6167527;23;20027;-88
2022/08/08 14:03:11;;;;;;;0.60;0.40;;;35.80;55.00;;;;;;6164512;23;20020;-90
2022/08/08 14:06:08;;;;;;;0.20;0.20;;;36.10;55.30;;;;;;6175216;23;20031;-89
2022/08/08 14:08:57;;;;;;;0.20;0.20;;;37.00;54.20;;;;;;6175839;23;20032;-90
2022/08/08 14:11:27;;;;;;;0.20;0.20;;;37.90;53.70;;;;;;6167058;23;20012;-89
2022/08/08 14:13:59;;;;;;;0.30;0.28;;;38.30;52.40;;;;;;6170593;23;20027;-89
2022/08/08 14:16:30;;;;;;;0.28;0.28;;;38.70;51.90;;;;;;6172741;23;20078;-88
2022/08/08 14:18:59;;;;;;;0.20;0.20;;;38.70;52.00;;;;;;6176036;23;20039;-88
2022/08/08 14:21:40;;;;;;;0.30;0.30;;;38.70;51.90;;;;;;6189863;23;20078;-89
2022/08/08 14:24:33;;;;;;;1.10;0.40;;;38.80;52.00;;;;;;6187388;23;20095;-88
2022/08/08 14:27:00;;;;;;;0.32;0.32;;;38.70;52.40;;;;;;6168905;23;20028;-89
2022/08/08 14:29:33;;;;;;;0.30;0.20;;;39.10;51.70;;;;;;6171249;23;20069;-88
2022/08/08 14:32:06;;;;;;;0.40;0.25;;;38.50;51.40;;;;;;6171837;23;20030;-89
2022/08/08 14:34:40;;;;;;;0.20;0.20;;;37.60;52.80;;;;;;6175285;23;20446;-87
2022/08/08 14:37:08;;;;;;;0.50;0.30;;;36.40;53.90;;;;;;6170217;23;20038;-88
2022/08/08 14:39:56;;;;;;;0.67;0.40;;;35.40;54.40;;;;;;6195617;23;20306;-86
2022/08/08 14:42:40;;;;;;;0.40;0.40;;;35.40;55.00;;;;;;6176100;23;20020;-89
2022/08/08 14:45:27;;;;;;;0.52;0.40;;;36.40;54.60;;;;;;6178630;23;20123;-89
2022/08/08 14:48:13;;;;;;;;;;;37.20;54.20;;;;;;6184164;23;20035;-89
2022/08/08 14:51:07;;;;;;;0.35;0.35;;;37.60;53.00;;;;;;6203743;23;20307;-88
2022/08/08 14:53:43;;;;;;;0.47;0.47;;;37.70;53.00;;;;;;6177311;23;20411;-89
2022/08/08 14:56:23;;;;;;;0.40;0.40;;;38.10;52.90;;;;;;6175632;23;20035;-88
2022/08/08 14:58:51;;;;;;;0.25;0.25;;;38.40;52.70;;;;;;6170223;23;20016;-88